Wendover Airport
KENV : now visible

Airfield :











YOU CAN JOIN US ON...

 
LOGIN :

Register | Disclaimer

   EN    FR    IT 

 









Legend :    VFR   Marginal VFR   IFR   Intensive IFR   Very Intensive IFR
Visi :
Ceiling :
>= 8 km
>= 3000ft
5 to 8 km
1000 to 3000 ft
1500m to 5 km
500 to 1000 ft
800 to 1500m
200 to 500 ft
< 800m
< 200 ft
Symbols :   Thunderstorms  Fog  Heavy snow  Heavy precipitations  Wind > 20 kt






- Airport Elevation : 4237 ft


KENV - Wendover

CURRENT METAR :
  • 232256Z AUTO 10005KT BKN046 BKN060 OVC070 10/04 A2989 RMK AO2 SLP113 T01000039 PWINO $

EXPIRED METARs :
  • 232226Z AUTO 12004KT FEW024 OVC048 10/04 A2988 RMK AO2 PWINO $
  • 232156Z AUTO 10006KT BKN024 OVC048 10/04 A2988 RMK AO2 SLP110 T01000044 PWINO $
  • 232135Z AUTO VRB03KT BKN024 OVC049 10/04 A2988 RMK AO2 PWINO $
  • 232056Z AUTO 12005KT FEW021 BKN042 OVC049 09/04 A2987 RMK AO2 SLP107 60001 T00940044 56011 PWINO $
  • 232051Z AUTO 14004KT FEW019 BKN040 OVC047 09/04 A2987 RMK AO2 PWINO $

TAF KENV
Valid from the 23 at 18:00 until the 24 at 18:00 UTC


231740Z 2318/2418 30010KT P6SM -SHRA SCT020 BKN040
FM231900 32006KT P6SM VCSH BKN040
FM240300 VRB04KT P6SM SCT080 BKN120
KZLC FIR / North America



MET'MAP, your aeronautical weather chart ! - Copyright ORBIFLY December 2007 - Disclaimer

ORBIFLY MET'MAP TEAM :

Programming & Development : Alexandra Zaïnal
Concept & original design : Baudouin d'Aumeries
Assistance for programming : Marc-Olivier Méhu
Technical & hardware support : Manuel Goepfert

Contact : metmap@orbifly.com




SOURCES & CREDITS :

   NOAA       Earth
Advisory